sensor_id;sensor_type;location;lat;lon;timestamp;pressure;altitude;pressure_sealevel;temperature;humidity
69035;BME280;56091;55.756;37.412;2023-03-04T00:00:37;97307.81;;;-1.89;78.92
69035;BME280;56091;55.756;37.412;2023-03-04T00:05:42;97300.56;;;-1.93;79.22
69035;BME280;56091;55.756;37.412;2023-03-04T00:10:43;97285.41;;;-1.86;78.96
69035;BME280;56091;55.756;37.412;2023-03-04T00:15:44;97270.28;;;-1.79;78.67
69035;BME280;56091;55.756;37.412;2023-03-04T00:20:45;97274.06;;;-1.75;78.56
69035;BME280;56091;55.756;37.412;2023-03-04T00:25:45;97273.53;;;-1.65;78.40
69035;BME280;56091;55.756;37.412;2023-03-04T00:30:46;97255.78;;;-1.77;78.26
69035;BME280;56091;55.756;37.412;2023-03-04T00:35:47;97230.66;;;-1.98;78.51
69035;BME280;56091;55.756;37.412;2023-03-04T00:40:48;97252.09;;;-1.87;78.74
69035;BME280;56091;55.756;37.412;2023-03-04T00:45:49;97268.22;;;-1.77;78.41
69035;BME280;56091;55.756;37.412;2023-03-04T00:50:50;97252.53;;;-1.90;78.69
69035;BME280;56091;55.756;37.412;2023-03-04T00:56:13;97263.81;;;-1.83;78.81
69035;BME280;56091;55.756;37.412;2023-03-04T01:01:14;97254.00;;;-1.94;79.13
69035;BME280;56091;55.756;37.412;2023-03-04T01:06:15;97246.44;;;-1.91;78.86
69035;BME280;56091;55.756;37.412;2023-03-04T01:11:16;97250.78;;;-1.97;79.24
69035;BME280;56091;55.756;37.412;2023-03-04T01:16:17;97243.28;;;-2.00;79.66
69035;BME280;56091;55.756;37.412;2023-03-04T01:21:18;97246.03;;;-2.06;80.23
69035;BME280;56091;55.756;37.412;2023-03-04T01:26:20;97245.53;;;-2.15;80.66
69035;BME280;56091;55.756;37.412;2023-03-04T01:31:21;97245.03;;;-2.24;81.01
69035;BME280;56091;55.756;37.412;2023-03-04T01:36:22;97239.41;;;-2.27;81.46
69035;BME280;56091;55.756;37.412;2023-03-04T01:41:25;97235.34;;;-2.30;81.87
69035;BME280;56091;55.756;37.412;2023-03-04T01:46:27;97207.34;;;-2.49;82.02
69035;BME280;56091;55.756;37.412;2023-03-04T01:51:29;97212.41;;;-2.48;82.20
69035;BME280;56091;55.756;37.412;2023-03-04T01:56:35;97211.72;;;-2.43;82.17
69035;BME280;56091;55.756;37.412;2023-03-04T02:01:37;97195.88;;;-2.43;82.37
69035;BME280;56091;55.756;37.412;2023-03-04T02:06:39;97171.41;;;-2.50;82.19
69035;BME280;56091;55.756;37.412;2023-03-04T02:11:42;97175.81;;;-2.44;82.15
69035;BME280;56091;55.756;37.412;2023-03-04T02:16:44;97172.34;;;-2.45;81.97
69035;BME280;56091;55.756;37.412;2023-03-04T02:21:45;97160.19;;;-2.46;81.84
69035;BME280;56091;55.756;37.412;2023-03-04T02:26:46;97159.22;;;-2.33;81.59
69035;BME280;56091;55.756;37.412;2023-03-04T02:31:49;97156.69;;;-2.28;81.17
69035;BME280;56091;55.756;37.412;2023-03-04T02:36:53;97141.16;;;-2.36;81.47
69035;BME280;56091;55.756;37.412;2023-03-04T02:41:55;97142.91;;;-2.30;81.12
69035;BME280;56091;55.756;37.412;2023-03-04T02:46:57;97143.03;;;-2.25;81.23
69035;BME280;56091;55.756;37.412;2023-03-04T02:52:04;97141.97;;;-2.36;81.54
69035;BME280;56091;55.756;37.412;2023-03-04T02:57:09;97122.53;;;-2.41;81.78
69035;BME280;56091;55.756;37.412;2023-03-04T03:02:13;97108.03;;;-2.50;82.03
69035;BME280;56091;55.756;37.412;2023-03-04T03:07:14;97100.66;;;-2.60;82.17
69035;BME280;56091;55.756;37.412;2023-03-04T03:12:15;97133.06;;;-2.53;82.51
69035;BME280;56091;55.756;37.412;2023-03-04T03:17:17;97123.25;;;-2.64;82.62
69035;BME280;56091;55.756;37.412;2023-03-04T03:22:17;97108.09;;;-2.87;83.71
69035;BME280;56091;55.756;37.412;2023-03-04T03:27:19;97097.53;;;-2.87;83.66
69035;BME280;56091;55.756;37.412;2023-03-04T03:32:20;97113.31;;;-2.81;83.82
69035;BME280;56091;55.756;37.412;2023-03-04T03:37:24;97108.41;;;-2.96;83.78
69035;BME280;56091;55.756;37.412;2023-03-04T03:42:26;97098.44;;;-2.93;83.77
69035;BME280;56091;55.756;37.412;2023-03-04T03:47:26;97073.38;;;-3.03;83.75
69035;BME280;56091;55.756;37.412;2023-03-04T03:52:27;97079.81;;;-2.99;83.91
69035;BME280;56091;55.756;37.412;2023-03-04T03:57:28;97057.81;;;-2.92;84.20
69035;BME280;56091;55.756;37.412;2023-03-04T04:02:30;97052.56;;;-2.62;83.51
69035;BME280;56091;55.756;37.412;2023-03-04T04:07:31;97041.69;;;-2.54;83.13
69035;BME280;56091;55.756;37.412;2023-03-04T04:12:32;97040.56;;;-2.46;82.94
69035;BME280;56091;55.756;37.412;2023-03-04T04:17:33;97042.38;;;-2.47;82.66
69035;BME280;56091;55.756;37.412;2023-03-04T04:22:34;97018.22;;;-2.62;82.96
69035;BME280;56091;55.756;37.412;2023-03-04T04:27:35;97027.44;;;-2.53;83.08
69035;BME280;56091;55.756;37.412;2023-03-04T04:32:36;97030.00;;;-2.46;82.95
69035;BME280;56091;55.756;37.412;2023-03-04T04:37:37;97007.53;;;-2.37;82.70
69035;BME280;56091;55.756;37.412;2023-03-04T04:42:38;97020.16;;;-2.27;81.99
69035;BME280;56091;55.756;37.412;2023-03-04T04:47:38;97000.19;;;-2.23;81.40
69035;BME280;56091;55.756;37.412;2023-03-04T04:52:39;97005.91;;;-2.14;81.23
69035;BME280;56091;55.756;37.412;2023-03-04T04:57:40;96996.28;;;-2.09;81.22
69035;BME280;56091;55.756;37.412;2023-03-04T05:02:41;97006.31;;;-1.99;80.66
69035;BME280;56091;55.756;37.412;2023-03-04T05:07:42;96962.75;;;-2.08;80.66
69035;BME280;56091;55.756;37.412;2023-03-04T05:12:43;96913.38;;;-2.20;79.06
69035;BME280;56091;55.756;37.412;2023-03-04T05:17:44;96979.53;;;-1.39;78.33
69035;BME280;56091;55.756;37.412;2023-03-04T05:22:45;96964.56;;;-1.21;77.01
69035;BME280;56091;55.756;37.412;2023-03-04T05:27:45;96981.41;;;-0.99;75.96
69035;BME280;56091;55.756;37.412;2023-03-04T05:32:46;96993.16;;;-1.06;75.89
69035;BME280;56091;55.756;37.412;2023-03-04T05:37:47;97004.13;;;-1.26;77.19
69035;BME280;56091;55.756;37.412;2023-03-04T05:42:48;96984.63;;;-1.49;77.67
69035;BME280;56091;55.756;37.412;2023-03-04T05:47:55;96973.28;;;-1.61;78.39
69035;BME280;56091;55.756;37.412;2023-03-04T05:52:55;96969.34;;;-1.47;77.99
69035;BME280;56091;55.756;37.412;2023-03-04T05:57:58;96969.28;;;-1.23;77.25
69035;BME280;56091;55.756;37.412;2023-03-04T06:02:58;96926.75;;;-1.74;77.72
69035;BME280;56091;55.756;37.412;2023-03-04T06:07:59;96967.44;;;-0.94;76.67
69035;BME280;56091;55.756;37.412;2023-03-04T06:13:00;96953.69;;;-0.79;75.67
69035;BME280;56091;55.756;37.412;2023-03-04T06:18:01;96942.09;;;-0.90;75.80
69035;BME280;56091;55.756;37.412;2023-03-04T06:23:03;96956.50;;;-0.69;75.25
69035;BME280;56091;55.756;37.412;2023-03-04T06:28:04;96944.31;;;-0.70;75.15
69035;BME280;56091;55.756;37.412;2023-03-04T06:33:05;96949.19;;;-0.62;74.78
69035;BME280;56091;55.756;37.412;2023-03-04T06:38:05;96938.19;;;-0.53;74.29
69035;BME280;56091;55.756;37.412;2023-03-04T06:43:06;96949.03;;;-0.38;73.02
69035;BME280;56091;55.756;37.412;2023-03-04T06:48:08;96930.59;;;-0.33;72.82
69035;BME280;56091;55.756;37.412;2023-03-04T06:53:09;96903.56;;;0.04;71.78
69035;BME280;56091;55.756;37.412;2023-03-04T06:58:10;96914.56;;;0.35;70.19
69035;BME280;56091;55.756;37.412;2023-03-04T07:03:11;96900.91;;;0.70;69.38
69035;BME280;56091;55.756;37.412;2023-03-04T07:08:12;96871.25;;;0.78;68.89
69035;BME280;56091;55.756;37.412;2023-03-04T07:13:13;96883.06;;;0.93;69.05
69035;BME280;56091;55.756;37.412;2023-03-04T07:18:13;96883.56;;;1.17;69.32
69035;BME280;56091;55.756;37.412;2023-03-04T07:23:14;96869.47;;;1.49;68.19
69035;BME280;56091;55.756;37.412;2023-03-04T07:28:16;96859.78;;;1.70;66.62
69035;BME280;56091;55.756;37.412;2023-03-04T07:33:17;96855.91;;;1.88;66.89
69035;BME280;56091;55.756;37.412;2023-03-04T07:38:17;96859.06;;;1.42;66.42
69035;BME280;56091;55.756;37.412;2023-03-04T07:43:18;96855.34;;;1.43;67.67
69035;BME280;56091;55.756;37.412;2023-03-04T07:48:19;96843.69;;;1.44;67.05
69035;BME280;56091;55.756;37.412;2023-03-04T07:53:19;96843.94;;;1.43;66.72
69035;BME280;56091;55.756;37.412;2023-03-04T07:58:23;96829.53;;;1.33;67.29
69035;BME280;56091;55.756;37.412;2023-03-04T08:03:24;96836.56;;;1.55;67.04
69035;BME280;56091;55.756;37.412;2023-03-04T08:08:25;96835.16;;;1.85;66.28
69035;BME280;56091;55.756;37.412;2023-03-04T08:13:26;96832.38;;;1.64;65.53
69035;BME280;56091;55.756;37.412;2023-03-04T08:18:27;96818.50;;;1.57;66.12
69035;BME280;56091;55.756;37.412;2023-03-04T08:23:28;96819.78;;;1.44;66.63
69035;BME280;56091;55.756;37.412;2023-03-04T08:28:28;96807.75;;;1.36;66.41
69035;BME280;56091;55.756;37.412;2023-03-04T08:33:31;96811.13;;;1.27;66.80
69035;BME280;56091;55.756;37.412;2023-03-04T08:38:31;96802.16;;;1.33;67.14
69035;BME280;56091;55.756;37.412;2023-03-04T08:43:33;96800.44;;;1.54;66.38
69035;BME280;56091;55.756;37.412;2023-03-04T08:48:35;96785.63;;;1.68;66.12
69035;BME280;56091;55.756;37.412;2023-03-04T08:53:39;96773.06;;;2.17;65.24
69035;BME280;56091;55.756;37.412;2023-03-04T08:58:40;96768.03;;;2.30;64.53
69035;BME280;56091;55.756;37.412;2023-03-04T09:03:41;96763.06;;;2.54;64.15
69035;BME280;56091;55.756;37.412;2023-03-04T09:08:45;96761.72;;;2.62;63.34
69035;BME280;56091;55.756;37.412;2023-03-04T09:13:46;96742.03;;;2.89;62.77
69035;BME280;56091;55.756;37.412;2023-03-04T09:18:47;96742.25;;;2.46;61.98
69035;BME280;56091;55.756;37.412;2023-03-04T09:23:47;96741.72;;;2.34;62.10
69035;BME280;56091;55.756;37.412;2023-03-04T09:28:53;96730.53;;;2.37;61.96
69035;BME280;56091;55.756;37.412;2023-03-04T09:33:56;96714.34;;;2.64;61.46
69035;BME280;56091;55.756;37.412;2023-03-04T09:39:01;96688.25;;;2.61;60.28
69035;BME280;56091;55.756;37.412;2023-03-04T09:44:11;96683.47;;;2.68;59.89
69035;BME280;56091;55.756;37.412;2023-03-04T09:49:14;96679.72;;;2.80;59.91
69035;BME280;56091;55.756;37.412;2023-03-04T09:59:34;96655.13;;;3.24;58.37
69035;BME280;56091;55.756;37.412;2023-03-04T10:04:49;96640.00;;;3.09;59.02
69035;BME280;56091;55.756;37.412;2023-03-04T10:09:58;96636.47;;;3.29;58.50
69035;BME280;56091;55.756;37.412;2023-03-04T10:15:03;96627.97;;;3.27;58.17
69035;BME280;56091;55.756;37.412;2023-03-04T10:20:14;96619.66;;;3.33;58.05
69035;BME280;56091;55.756;37.412;2023-03-04T10:25:27;96609.00;;;3.39;58.27
69035;BME280;56091;55.756;37.412;2023-03-04T10:36:21;96595.84;;;3.63;59.29
69035;BME280;56091;55.756;37.412;2023-03-04T10:41:27;96582.31;;;3.88;59.25
69035;BME280;56091;55.756;37.412;2023-03-04T10:46:29;96586.75;;;3.64;59.64
69035;BME280;56091;55.756;37.412;2023-03-04T10:51:30;96572.00;;;3.32;60.38
69035;BME280;56091;55.756;37.412;2023-03-04T10:56:42;96555.75;;;3.28;60.39
69035;BME280;56091;55.756;37.412;2023-03-04T11:01:53;96551.81;;;3.10;60.84
69035;BME280;56091;55.756;37.412;2023-03-04T11:06:53;96548.44;;;2.95;61.49
69035;BME280;56091;55.756;37.412;2023-03-04T11:11:58;96533.81;;;2.82;62.00
69035;BME280;56091;55.756;37.412;2023-03-04T11:17:15;96533.31;;;2.80;62.44
69035;BME280;56091;55.756;37.412;2023-03-04T11:22:19;96519.22;;;2.69;63.65
69035;BME280;56091;55.756;37.412;2023-03-04T11:27:47;96514.94;;;2.73;64.55
69035;BME280;56091;55.756;37.412;2023-03-04T11:32:55;96513.41;;;2.57;65.91
69035;BME280;56091;55.756;37.412;2023-03-04T11:38:17;96504.69;;;2.36;68.08
69035;BME280;56091;55.756;37.412;2023-03-04T11:43:24;96494.53;;;2.43;69.25
69035;BME280;56091;55.756;37.412;2023-03-04T11:54:03;96479.91;;;2.40;70.30
69035;BME280;56091;55.756;37.412;2023-03-04T11:59:33;96472.75;;;2.36;70.36
69035;BME280;56091;55.756;37.412;2023-03-04T12:10:32;96449.84;;;2.40;71.90
69035;BME280;56091;55.756;37.412;2023-03-04T12:20:52;96437.09;;;2.37;73.47
69035;BME280;56091;55.756;37.412;2023-03-04T12:26:04;96427.22;;;2.52;72.94
69035;BME280;56091;55.756;37.412;2023-03-04T12:53:10;96378.97;;;1.94;73.12
69035;BME280;56091;55.756;37.412;2023-03-04T12:58:20;96378.13;;;2.04;74.24
69035;BME280;56091;55.756;37.412;2023-03-04T13:08:57;96359.75;;;2.12;74.35
69035;BME280;56091;55.756;37.412;2023-03-04T13:24:45;96337.19;;;2.05;74.25
69035;BME280;56091;55.756;37.412;2023-03-04T13:29:47;96332.72;;;1.90;74.13
69035;BME280;56091;55.756;37.412;2023-03-04T13:34:50;96318.34;;;1.96;74.28
69035;BME280;56091;55.756;37.412;2023-03-04T13:45:36;96312.25;;;1.80;75.71
69035;BME280;56091;55.756;37.412;2023-03-04T13:50:47;96294.47;;;1.75;75.58
69035;BME280;56091;55.756;37.412;2023-03-04T13:56:17;96292.09;;;1.79;76.02
69035;BME280;56091;55.756;37.412;2023-03-04T14:01:28;96280.13;;;1.77;75.82
69035;BME280;56091;55.756;37.412;2023-03-04T14:06:32;96266.59;;;1.68;76.79
69035;BME280;56091;55.756;37.412;2023-03-04T14:11:35;96264.22;;;1.66;77.43
69035;BME280;56091;55.756;37.412;2023-03-04T14:16:50;96266.59;;;1.68;77.00
69035;BME280;56091;55.756;37.412;2023-03-04T14:21:52;96248.31;;;1.56;77.20
69035;BME280;56091;55.756;37.412;2023-03-04T14:27:11;96249.44;;;1.29;78.21
69035;BME280;56091;55.756;37.412;2023-03-04T14:32:12;96245.19;;;1.23;78.76
69035;BME280;56091;55.756;37.412;2023-03-04T14:37:51;96236.59;;;1.57;79.32
69035;BME280;56091;55.756;37.412;2023-03-04T14:43:02;96236.97;;;1.95;78.24
69035;BME280;56091;55.756;37.412;2023-03-04T14:48:05;96216.72;;;2.04;76.17
69035;BME280;56091;55.756;37.412;2023-03-04T14:58:17;96210.06;;;1.47;78.00
69035;BME280;56091;55.756;37.412;2023-03-04T15:03:24;96205.91;;;1.25;79.21
69035;BME280;56091;55.756;37.412;2023-03-04T15:08:33;96196.88;;;1.06;79.97
69035;BME280;56091;55.756;37.412;2023-03-04T15:19:25;96193.44;;;1.00;81.41
69035;BME280;56091;55.756;37.412;2023-03-04T15:24:27;96193.97;;;1.07;81.03
69035;BME280;56091;55.756;37.412;2023-03-04T15:29:28;96178.59;;;0.94;80.67
69035;BME280;56091;55.756;37.412;2023-03-04T15:34:29;96184.16;;;0.97;81.80
69035;BME280;56091;55.756;37.412;2023-03-04T15:39:31;96169.31;;;0.91;82.45
69035;BME280;56091;55.756;37.412;2023-03-04T15:44:32;96179.38;;;1.05;82.30
69035;BME280;56091;55.756;37.412;2023-03-04T15:49:33;96186.78;;;1.08;81.32
69035;BME280;56091;55.756;37.412;2023-03-04T15:54:34;96168.78;;;1.00;80.83
69035;BME280;56091;55.756;37.412;2023-03-04T15:59:35;96163.19;;;0.96;81.27
69035;BME280;56091;55.756;37.412;2023-03-04T16:04:36;96177.00;;;0.98;80.49
69035;BME280;56091;55.756;37.412;2023-03-04T16:09:38;96157.09;;;0.90;80.34
69035;BME280;56091;55.756;37.412;2023-03-04T16:14:39;96166.16;;;0.84;79.65
69035;BME280;56091;55.756;37.412;2023-03-04T16:19:41;96142.53;;;0.83;80.65
69035;BME280;56091;55.756;37.412;2023-03-04T16:24:42;96134.31;;;0.79;79.96
69035;BME280;56091;55.756;37.412;2023-03-04T16:29:43;96107.25;;;0.72;80.09
69035;BME280;56091;55.756;37.412;2023-03-04T16:34:45;96134.78;;;0.96;80.18
69035;BME280;56091;55.756;37.412;2023-03-04T16:39:47;96132.16;;;0.91;80.36
69035;BME280;56091;55.756;37.412;2023-03-04T16:44:49;96134.03;;;0.86;80.68
69035;BME280;56091;55.756;37.412;2023-03-04T16:49:52;96117.31;;;0.85;81.04
69035;BME280;56091;55.756;37.412;2023-03-04T16:54:54;96117.84;;;0.77;80.98
69035;BME280;56091;55.756;37.412;2023-03-04T16:59:56;96117.59;;;0.68;80.93
69035;BME280;56091;55.756;37.412;2023-03-04T17:04:57;96106.44;;;0.76;81.64
69035;BME280;56091;55.756;37.412;2023-03-04T17:09:58;96107.31;;;0.51;81.78
69035;BME280;56091;55.756;37.412;2023-03-04T17:14:59;96113.69;;;0.19;81.73
69035;BME280;56091;55.756;37.412;2023-03-04T17:20:06;96115.53;;;-0.02;82.07
69035;BME280;56091;55.756;37.412;2023-03-04T17:25:09;96112.53;;;-0.31;82.26
69035;BME280;56091;55.756;37.412;2023-03-04T17:30:12;96117.56;;;-0.40;82.02
69035;BME280;56091;55.756;37.412;2023-03-04T17:35:13;96125.22;;;-0.48;83.48
69035;BME280;56091;55.756;37.412;2023-03-04T17:40:13;96133.69;;;-0.56;84.31
69035;BME280;56091;55.756;37.412;2023-03-04T17:45:14;96105.03;;;-0.70;85.49
69035;BME280;56091;55.756;37.412;2023-03-04T17:50:15;96103.97;;;-0.69;85.30
69035;BME280;56091;55.756;37.412;2023-03-04T17:55:16;96121.75;;;-0.64;85.69
69035;BME280;56091;55.756;37.412;2023-03-04T18:00:19;96105.53;;;-0.78;85.74
69035;BME280;56091;55.756;37.412;2023-03-04T18:05:20;96087.78;;;-0.83;85.67
69035;BME280;56091;55.756;37.412;2023-03-04T18:10:25;96099.44;;;-0.79;85.23
69035;BME280;56091;55.756;37.412;2023-03-04T18:15:27;96110.34;;;-0.70;85.07
69035;BME280;56091;55.756;37.412;2023-03-04T18:20:28;96100.25;;;-0.73;85.47
69035;BME280;56091;55.756;37.412;2023-03-04T18:25:29;96083.28;;;-0.87;85.05
69035;BME280;56091;55.756;37.412;2023-03-04T18:30:31;96118.50;;;-0.76;84.35
69035;BME280;56091;55.756;37.412;2023-03-04T18:35:32;96100.22;;;-0.83;83.94
69035;BME280;56091;55.756;37.412;2023-03-04T18:40:32;96106.59;;;-0.79;82.89
69035;BME280;56091;55.756;37.412;2023-03-04T18:45:33;96084.25;;;-1.04;82.80
69035;BME280;56091;55.756;37.412;2023-03-04T18:50:34;96104.66;;;-0.99;82.22
69035;BME280;56091;55.756;37.412;2023-03-04T18:55:35;96119.97;;;-1.01;81.80
69035;BME280;56091;55.756;37.412;2023-03-04T19:00:36;96123.94;;;-1.04;82.01
69035;BME280;56091;55.756;37.412;2023-03-04T19:05:37;96123.91;;;-1.09;81.84
69035;BME280;56091;55.756;37.412;2023-03-04T19:10:38;96140.84;;;-1.10;81.41
69035;BME280;56091;55.756;37.412;2023-03-04T19:15:39;96114.63;;;-1.16;80.07
69035;BME280;56091;55.756;37.412;2023-03-04T19:20:44;96128.41;;;-1.09;79.56
69035;BME280;56091;55.756;37.412;2023-03-04T19:25:45;96111.94;;;-1.22;79.56
69035;BME280;56091;55.756;37.412;2023-03-04T19:30:46;96114.38;;;-1.15;79.71
69035;BME280;56091;55.756;37.412;2023-03-04T19:35:49;96137.63;;;-1.17;79.66
69035;BME280;56091;55.756;37.412;2023-03-04T19:40:50;96110.41;;;-1.17;79.08
69035;BME280;56091;55.756;37.412;2023-03-04T19:45:54;96105.56;;;-1.31;79.35
69035;BME280;56091;55.756;37.412;2023-03-04T19:50:58;96064.03;;;-1.73;78.96
69035;BME280;56091;55.756;37.412;2023-03-04T19:56:00;96117.13;;;-1.42;79.08
69035;BME280;56091;55.756;37.412;2023-03-04T20:01:04;96111.00;;;-1.48;79.52
69035;BME280;56091;55.756;37.412;2023-03-04T20:06:07;96100.41;;;-1.53;80.42
69035;BME280;56091;55.756;37.412;2023-03-04T20:11:11;96100.94;;;-1.51;80.41
69035;BME280;56091;55.756;37.412;2023-03-04T20:16:15;96107.88;;;-1.40;80.34
69035;BME280;56091;55.756;37.412;2023-03-04T20:21:17;96115.28;;;-1.42;79.60
69035;BME280;56091;55.756;37.412;2023-03-04T20:26:17;96113.66;;;-1.43;79.79
69035;BME280;56091;55.756;37.412;2023-03-04T20:31:29;96106.44;;;-1.58;80.10
69035;BME280;56091;55.756;37.412;2023-03-04T20:36:31;96111.47;;;-1.56;79.61
69035;BME280;56091;55.756;37.412;2023-03-04T20:41:32;96109.88;;;-1.57;79.61
69035;BME280;56091;55.756;37.412;2023-03-04T20:46:38;96093.69;;;-1.66;78.70
69035;BME280;56091;55.756;37.412;2023-03-04T20:51:45;96112.19;;;-1.66;79.39
69035;BME280;56091;55.756;37.412;2023-03-04T20:56:46;96104.06;;;-1.59;78.94
69035;BME280;56091;55.756;37.412;2023-03-04T21:01:47;96114.59;;;-1.64;78.77
69035;BME280;56091;55.756;37.412;2023-03-04T21:06:48;96099.28;;;-1.62;78.18
69035;BME280;56091;55.756;37.412;2023-03-04T21:11:51;96105.59;;;-1.68;77.79
69035;BME280;56091;55.756;37.412;2023-03-04T21:16:54;96109.78;;;-1.67;78.40
69035;BME280;56091;55.756;37.412;2023-03-04T21:21:56;96096.53;;;-1.78;77.77
69035;BME280;56091;55.756;37.412;2023-03-04T21:26:57;96105.53;;;-1.73;77.63
69035;BME280;56091;55.756;37.412;2023-03-04T21:32:13;96090.16;;;-1.82;77.88
69035;BME280;56091;55.756;37.412;2023-03-04T21:37:15;96091.97;;;-1.87;77.92
69035;BME280;56091;55.756;37.412;2023-03-04T21:42:16;96096.94;;;-1.91;77.84
69035;BME280;56091;55.756;37.412;2023-03-04T21:47:17;96109.63;;;-1.93;78.40
69035;BME280;56091;55.756;37.412;2023-03-04T21:52:20;96101.41;;;-1.97;78.61
69035;BME280;56091;55.756;37.412;2023-03-04T21:57:21;96091.97;;;-1.87;79.09
69035;BME280;56091;55.756;37.412;2023-03-04T22:02:21;96090.81;;;-1.97;79.19
69035;BME280;56091;55.756;37.412;2023-03-04T22:07:22;96087.28;;;-2.07;79.90
69035;BME280;56091;55.756;37.412;2023-03-04T22:12:23;96089.22;;;-1.98;79.85
69035;BME280;56091;55.756;37.412;2023-03-04T22:17:24;96103.75;;;-2.00;80.11
69035;BME280;56091;55.756;37.412;2023-03-04T22:22:24;96103.75;;;-2.00;80.20
69035;BME280;56091;55.756;37.412;2023-03-04T22:27:27;96094.47;;;-2.03;80.05
69035;BME280;56091;55.756;37.412;2023-03-04T22:32:28;96102.44;;;-1.98;80.22
69035;BME280;56091;55.756;37.412;2023-03-04T22:37:28;96097.44;;;-1.99;80.44
69035;BME280;56091;55.756;37.412;2023-03-04T22:42:29;96093.47;;;-1.97;80.48
69035;BME280;56091;55.756;37.412;2023-03-04T22:47:30;96107.94;;;-2.04;80.28
69035;BME280;56091;55.756;37.412;2023-03-04T22:52:33;96081.16;;;-2.18;80.28
69035;BME280;56091;55.756;37.412;2023-03-04T22:57:34;96083.81;;;-2.13;80.25
69035;BME280;56091;55.756;37.412;2023-03-04T23:02:35;96094.44;;;-2.08;80.45
69035;BME280;56091;55.756;37.412;2023-03-04T23:07:37;96083.63;;;-2.01;80.09
69035;BME280;56091;55.756;37.412;2023-03-04T23:12:38;96090.78;;;-2.02;79.83
69035;BME280;56091;55.756;37.412;2023-03-04T23:17:38;96102.66;;;-2.04;79.99
69035;BME280;56091;55.756;37.412;2023-03-04T23:22:39;96087.81;;;-2.10;80.25
69035;BME280;56091;55.756;37.412;2023-03-04T23:27:43;96091.50;;;-2.11;80.02
69035;BME280;56091;55.756;37.412;2023-03-04T23:32:47;96073.41;;;-2.25;79.99
69035;BME280;56091;55.756;37.412;2023-03-04T23:37:48;96078.75;;;-2.20;79.44
69035;BME280;56091;55.756;37.412;2023-03-04T23:42:49;96083.22;;;-2.20;79.37
69035;BME280;56091;55.756;37.412;2023-03-04T23:47:50;96082.13;;;-2.24;79.48
69035;BME280;56091;55.756;37.412;2023-03-04T23:52:50;96075.03;;;-2.24;79.69
69035;BME280;56091;55.756;37.412;2023-03-04T23:57:51;96069.63;;;-2.34;79.84
